createdAt,value
2017-08-12T00:00:03.198Z,83.64
2017-08-12T00:05:03.395Z,84.02
2017-08-12T00:10:02.888Z,83.16
2017-08-12T00:15:03.513Z,82.3
2017-08-12T00:20:03.212Z,80.29
2017-08-12T00:25:03.608Z,79.91
2017-08-12T00:30:03.125Z,79.14
2017-08-12T00:35:02.744Z,78.81
2017-08-12T00:40:03.302Z,77.28
2017-08-12T00:45:02.877Z,76.9
2017-08-12T00:50:03.481Z,76.33
2017-08-12T00:55:02.940Z,76.04
2017-08-12T01:00:03.345Z,75.85
2017-08-12T01:05:02.886Z,75.47
2017-08-12T01:10:03.388Z,75.95
2017-08-12T01:15:02.927Z,76.33
2017-08-12T01:20:03.643Z,76.42
2017-08-12T01:25:03.137Z,77.28
2017-08-12T01:30:03.536Z,77.28
2017-08-12T01:35:03.038Z,77.48
2017-08-12T01:40:03.648Z,78.34
2017-08-12T01:45:03.025Z,78.53
2017-08-12T01:50:03.722Z,79.68
2017-08-12T01:55:03.186Z,79.77
2017-08-12T02:00:02.729Z,80.16
2017-08-12T02:05:03.224Z,79.83
2017-08-12T02:10:02.980Z,79.73
2017-08-12T02:15:03.725Z,79.54
2017-08-12T02:20:03.372Z,78.97
2017-08-12T02:25:02.812Z,78.68
2017-08-12T02:30:03.412Z,78.49
2017-08-12T02:35:02.966Z,78.68
2017-08-12T02:40:03.680Z,78.78
2017-08-12T02:45:03.188Z,78.87
2017-08-12T02:50:03.621Z,79.25
2017-08-12T02:55:02.952Z,78.87
2017-08-12T03:00:03.451Z,78.58
2017-08-12T03:05:02.931Z,78.58
2017-08-12T03:10:03.528Z,78.01
2017-08-12T03:15:03.021Z,77.72
2017-08-12T03:20:03.454Z,77.25
2017-08-12T03:25:02.960Z,76.96
2017-08-12T03:30:04.665Z,76.48
2017-08-12T03:35:03.259Z,75.71
2017-08-12T03:40:02.753Z,75.62
2017-08-12T03:45:03.273Z,75.14
2017-08-12T03:50:02.746Z,74.76
2017-08-12T03:55:03.515Z,74.19
2017-08-12T04:00:03.004Z,73.8
2017-08-12T04:05:03.565Z,73.43
2017-08-12T04:10:02.999Z,73.33
2017-08-12T04:15:04.297Z,73.23
2017-08-12T04:20:02.699Z,72.56
2017-08-12T04:25:03.526Z,72.18
2017-08-12T04:30:03.392Z,72.28
2017-08-12T04:35:02.811Z,71.61
2017-08-12T04:40:03.566Z,70.36
2017-08-12T04:45:02.934Z,69.89
2017-08-12T04:50:03.386Z,69.02
2017-08-12T04:55:02.856Z,68.16
2017-08-12T05:00:04.000Z,68.07
2017-08-12T05:05:03.541Z,67.49
2017-08-12T05:10:02.997Z,67.11
2017-08-12T05:15:04.248Z,66.83
2017-08-12T05:20:03.814Z,66.54
2017-08-12T05:25:03.355Z,66.16
2017-08-12T05:30:02.769Z,65.58
2017-08-12T05:35:03.355Z,65.58
2017-08-12T05:40:02.930Z,65.39
2017-08-12T05:45:03.993Z,64.91
2017-08-12T05:50:03.596Z,64.43
2017-08-12T05:55:03.153Z,64.25
2017-08-12T06:00:02.870Z,63.76
2017-08-12T06:05:03.660Z,63.39
2017-08-12T06:10:03.334Z,63
2017-08-12T06:15:02.777Z,62.81
2017-08-12T06:20:03.527Z,62.81
2017-08-12T06:25:03.100Z,62.43
2017-08-12T06:30:03.706Z,62.24
2017-08-12T06:35:03.220Z,62.14
2017-08-12T06:40:02.820Z,62.04
2017-08-12T06:45:03.364Z,62.24
2017-08-12T06:50:03.011Z,62.33
2017-08-12T06:55:03.602Z,62.33
2017-08-12T07:00:03.250Z,62.81
2017-08-12T07:05:03.822Z,62.71
2017-08-12T07:10:03.475Z,62.52
2017-08-12T07:15:02.854Z,62.43
2017-08-12T07:20:03.446Z,62.62
2017-08-12T07:25:02.935Z,62.52
2017-08-12T07:30:03.671Z,62.33
2017-08-12T07:35:03.175Z,62.24
2017-08-12T07:40:02.739Z,62.14
2017-08-12T07:45:03.314Z,62.24
2017-08-12T07:50:03.023Z,62.14
2017-08-12T07:55:03.579Z,62.24
2017-08-12T08:00:02.966Z,62.62
2017-08-12T08:05:03.713Z,62.33
2017-08-12T08:10:03.255Z,62.24
2017-08-12T08:15:02.742Z,62.08
2017-08-12T08:20:03.183Z,61.69
2017-08-12T08:25:02.708Z,61.69
2017-08-12T08:30:03.258Z,61.12
2017-08-12T08:35:02.961Z,60.83
2017-08-12T08:40:03.483Z,60.26
2017-08-12T08:45:03.013Z,60
2017-08-12T08:50:03.436Z,59.62
2017-08-12T08:55:03.026Z,59.43
2017-08-12T09:00:03.578Z,59.23
2017-08-12T09:05:03.173Z,58.95
2017-08-12T09:10:02.781Z,58.47
2017-08-12T09:15:03.496Z,58.31
2017-08-12T09:20:03.023Z,58.31
2017-08-12T09:25:03.614Z,58.4
2017-08-12T09:30:03.084Z,58.4
2017-08-12T09:35:02.709Z,58.4
2017-08-12T09:40:03.296Z,58.4
2017-08-12T09:45:02.706Z,58.5
2017-08-12T09:50:03.352Z,58.4
2017-08-12T09:55:02.980Z,58.22
2017-08-12T10:00:03.567Z,58.12
2017-08-12T10:05:03.199Z,57.92
2017-08-12T10:10:02.785Z,57.67
2017-08-12T10:15:03.332Z,57.57
2017-08-12T10:20:02.914Z,57.38
2017-08-12T10:25:03.499Z,57.28
2017-08-12T10:30:03.046Z,57.12
2017-08-12T10:35:03.592Z,57.5
2017-08-12T10:40:03.281Z,59.16
2017-08-12T10:45:02.712Z,59.06
2017-08-12T10:50:03.251Z,58.87
2017-08-12T10:55:03.708Z,58.3
2017-08-12T11:00:03.111Z,58.78
2017-08-12T11:05:03.858Z,58.39
2017-08-12T11:10:03.349Z,58.87
2017-08-12T11:15:03.901Z,59.09
2017-08-12T11:20:03.511Z,61.75
2017-08-12T11:25:03.076Z,64.92
2017-08-12T11:30:03.617Z,62.9
2017-08-12T11:35:03.105Z,63.67
2017-08-12T11:40:03.728Z,64.92
2017-08-12T11:45:03.250Z,63.28
2017-08-12T11:50:02.934Z,66.07
2017-08-12T11:55:03.305Z,65.78
2017-08-12T12:00:02.885Z,64.47
2017-08-12T12:05:03.492Z,65.43
2017-08-12T12:10:03.045Z,68.41
2017-08-12T12:15:03.597Z,68.89
2017-08-12T12:20:04.606Z,72.09
2017-08-12T12:25:03.032Z,73.47
2017-08-12T12:30:03.466Z,73.06
2017-08-12T12:35:03.078Z,70.46
2017-08-12T12:40:03.557Z,70.94
2017-08-12T12:45:02.993Z,67.93
2017-08-12T12:50:03.469Z,67.64
2017-08-12T12:55:03.013Z,68.21
2017-08-12T13:00:03.406Z,66
2017-08-12T13:05:02.899Z,65.53
2017-08-12T13:10:03.470Z,65.53
2017-08-12T13:15:02.905Z,64.95
2017-08-12T13:20:03.333Z,66.14
2017-08-12T13:25:02.904Z,68.06
2017-08-12T13:30:03.490Z,68.54
2017-08-12T13:35:03.275Z,67.38
2017-08-12T13:40:02.703Z,67
2017-08-12T13:45:03.172Z,67
2017-08-12T13:50:03.682Z,67.68
2017-08-12T13:55:03.088Z,67.71
2017-08-12T14:00:03.693Z,70.82
2017-08-12T14:05:03.345Z,74.13
2017-08-12T14:10:02.979Z,74.65
2017-08-12T14:15:03.436Z,78.31
2017-08-12T14:20:02.916Z,77.5
2017-08-12T14:25:03.439Z,79.89
2017-08-12T14:30:02.934Z,80.56
2017-08-12T14:35:03.540Z,78.5
2017-08-12T14:40:03.142Z,83.36
2017-08-12T14:45:03.689Z,82.78
2017-08-12T14:50:03.130Z,82.62
2017-08-12T14:54:05.176Z,82.34
2017-08-12T14:55:03.709Z,82.34
2017-08-12T15:00:03.262Z,85.33
2017-08-12T15:05:02.726Z,85.33
2017-08-12T15:10:03.233Z,84.75
2017-08-12T15:15:02.745Z,84.12
2017-08-12T15:20:03.460Z,82.26
2017-08-12T15:25:02.895Z,81.52
2017-08-12T15:35:03.034Z,87.35
2017-08-12T15:40:03.652Z,87.45
2017-08-12T15:45:03.046Z,87.88
2017-08-12T15:50:03.610Z,85.77
2017-08-12T15:55:03.234Z,84.66
2017-08-12T16:00:02.737Z,83.51
2017-08-12T16:05:03.217Z,81.16
2017-08-12T16:10:02.798Z,80.87
2017-08-12T16:15:03.336Z,79.9
2017-08-12T16:20:02.760Z,77.4
2017-08-12T16:25:03.214Z,73.42
2017-08-12T16:30:02.853Z,72.03
2017-08-12T16:35:03.456Z,70.88
2017-08-12T16:40:03.047Z,68.57
2017-08-12T16:45:03.485Z,67.58
2017-08-12T16:50:02.910Z,67.86
2017-08-12T16:55:03.570Z,67.13
2017-08-12T17:00:02.999Z,66.74
2017-08-12T17:05:03.647Z,67.26
2017-08-12T17:10:03.303Z,70.05
2017-08-12T17:15:02.729Z,69.51
2017-08-12T17:20:03.431Z,72.36
2017-08-12T17:25:02.998Z,73.03
2017-08-12T17:30:03.754Z,73.61
2017-08-12T17:35:03.393Z,74.82
2017-08-12T17:40:02.862Z,75.59
2017-08-12T17:45:03.550Z,75.31
2017-08-12T17:50:02.953Z,75.4
2017-08-12T17:55:03.513Z,74.4
2017-08-12T18:00:03.113Z,74.21
2017-08-12T18:05:03.712Z,73.83
2017-08-12T18:10:03.310Z,73.35
2017-08-12T18:15:02.879Z,72.86
2017-08-12T18:20:03.476Z,70.52
2017-08-12T18:25:02.921Z,69.85
2017-08-12T18:30:03.627Z,68.7
2017-08-12T18:35:03.185Z,67.74
2017-08-12T18:40:02.736Z,65.91
2017-08-12T18:45:03.490Z,64.37
2017-08-12T18:50:02.943Z,63.02
2017-08-12T18:55:03.380Z,62.35
2017-08-12T19:00:02.859Z,61.17
2017-08-12T19:05:03.486Z,60.78
2017-08-12T19:10:03.047Z,60.5
2017-08-12T19:15:03.459Z,60.11
2017-08-12T19:20:02.925Z,59.83
2017-08-12T19:25:03.502Z,59.34
2017-08-12T19:30:03.026Z,59.25
2017-08-12T19:35:03.732Z,59.16
2017-08-12T19:40:03.554Z,58.96
2017-08-12T19:45:03.219Z,58.67
2017-08-12T19:55:03.464Z,58.45
2017-08-12T20:00:02.853Z,58.26
2017-08-12T20:05:03.477Z,59.89
2017-08-12T20:10:03.221Z,64.59
2017-08-12T20:15:03.638Z,66.61
2017-08-12T20:20:03.291Z,67.29
2017-08-12T20:25:02.887Z,67.19
2017-08-12T20:30:03.509Z,67.76
2017-08-12T20:35:03.235Z,69.11
2017-08-12T20:45:03.546Z,71.09
2017-08-12T20:50:02.948Z,71.47
2017-08-12T20:55:03.371Z,70.7
2017-08-12T21:00:03.097Z,69.93
2017-08-12T21:05:03.728Z,70.32
2017-08-12T21:10:03.359Z,70.48
2017-08-12T21:15:02.796Z,70.67
2017-08-12T21:20:03.390Z,70.48
2017-08-12T21:25:02.789Z,70.38
2017-08-12T21:30:03.648Z,70.09
2017-08-12T21:35:03.143Z,70.29
2017-08-12T21:40:03.648Z,69.68
2017-08-12T21:45:03.160Z,69.2
2017-08-12T21:50:03.684Z,69.29
2017-08-12T21:55:03.212Z,69.68
2017-08-12T22:00:03.671Z,70.83
2017-08-12T22:05:03.250Z,69.77
2017-08-12T22:10:02.822Z,68.97
2017-08-12T22:15:03.223Z,68.97
2017-08-12T22:20:02.937Z,68.97
2017-08-12T22:25:03.491Z,68.97
2017-08-12T22:30:02.900Z,68.68
2017-08-12T22:35:03.440Z,68.49
2017-08-12T22:40:03.046Z,68.3
2017-08-12T22:45:03.661Z,68.3
2017-08-12T22:50:03.220Z,67.6
2017-08-12T22:55:02.714Z,67.5
2017-08-12T23:00:03.570Z,67.11
2017-08-12T23:05:02.825Z,66.64
2017-08-12T23:10:03.568Z,66.45
2017-08-12T23:15:03.009Z,66.16
2017-08-12T23:20:03.622Z,65.78
2017-08-12T23:25:03.092Z,65.49
2017-08-12T23:30:03.501Z,65.08
2017-08-12T23:35:03.044Z,64.98
2017-08-12T23:40:03.765Z,64.22
2017-08-12T23:45:03.355Z,64.02
2017-08-12T23:50:02.731Z,63.73
2017-08-12T23:55:03.190Z,63.73
